Time;durP1;ratioP1;P1;durP2;ratioP2;P2;SDS_P1;SDS_P2;PMS_P1;PMS_P2;Temp;Humidity;BMP_temperature;BMP_pressure;BME280_temperature;BME280_humidity;BME280_pressure;Samples;Min_cycle;Max_cycle;Signal;HPM_P1;HPM_P2
2022/07/27 00:00:21;;;;;;;;;;;18.80;82.70;;;;;;5072248;28;19999;-59
2022/07/27 00:02:46;;;;;;;;;;;18.80;82.60;;;;;;5072458;28;19938;-59
2022/07/27 00:05:12;;;;;;;;;;;18.80;82.10;;;;;;5073260;28;19912;-59
2022/07/27 00:07:37;;;;;;;;;;;18.80;83.00;;;;;;5072971;28;19916;-59
2022/07/27 00:10:03;;;;;;;;;;;18.80;82.70;;;;;;5072870;28;19912;-58
2022/07/27 00:12:29;;;;;;;;;;;18.80;83.20;;;;;;5072812;28;19922;-59
2022/07/27 00:14:57;;;;;;;;;;;18.70;84.30;;;;;;5072681;28;19912;-59
2022/07/27 00:17:23;;;;;;;;;;;18.70;84.60;;;;;;5072787;28;19913;-59
2022/07/27 00:19:49;;;;;;;;;;;18.70;84.30;;;;;;5073514;28;19919;-59
2022/07/27 00:22:15;;;;;;;;;;;18.70;84.60;;;;;;5073146;28;20004;-59
2022/07/27 00:24:41;;;;;;;;;;;18.70;84.60;;;;;;5073031;28;19983;-59
2022/07/27 00:27:07;;;;;;;;;;;18.70;85.00;;;;;;5073330;28;19909;-59
2022/07/27 00:29:32;;;;;;;;;;;18.60;85.10;;;;;;5066248;28;19917;-59
2022/07/27 00:31:58;;;;;;;;;;;18.60;84.80;;;;;;5072793;28;20012;-59
2022/07/27 00:34:23;;;;;;;;;;;18.70;84.50;;;;;;5070359;28;19915;-58
2022/07/27 00:36:49;;;;;;;;;;;18.70;84.80;;;;;;5072686;28;19915;-59
2022/07/27 00:39:14;;;;;;;;;;;18.60;85.00;;;;;;5072666;28;20328;-58
2022/07/27 00:41:40;;;;;;;;;;;18.60;85.50;;;;;;5065703;28;19916;-58
2022/07/27 00:44:05;;;;;;;;;;;18.50;85.90;;;;;;5071997;28;20004;-59
2022/07/27 00:46:31;;;;;;;;;;;18.50;86.20;;;;;;5073047;28;19908;-58
2022/07/27 00:48:57;;;;;;;;;;;18.40;87.10;;;;;;5070666;28;20436;-58
2022/07/27 00:51:23;;;;;;;;;;;18.40;87.00;;;;;;5068843;28;19932;-58
2022/07/27 00:53:49;;;;;;;;;;;18.40;86.00;;;;;;5072324;28;19923;-58
2022/07/27 00:56:15;;;;;;;;;;;18.40;86.80;;;;;;5071310;28;20458;-59
2022/07/27 00:58:43;;;;;;;;;;;18.40;87.20;;;;;;5064840;28;19909;-59
2022/07/27 01:01:09;;;;;;;;;;;18.40;86.70;;;;;;5071568;28;19924;-58
2022/07/27 01:03:34;;;;;;;;;;;18.40;86.80;;;;;;5071936;28;19912;-59
2022/07/27 01:06:00;;;;;;;;;;;18.40;86.60;;;;;;5071198;28;20364;-59
2022/07/27 01:08:26;;;;;;;;;;;18.40;87.20;;;;;;5072265;28;19913;-59
2022/07/27 01:10:53;;;;;;;;;;;18.40;87.90;;;;;;5071674;28;20390;-59
2022/07/27 01:13:19;;;;;;;;;;;18.40;87.50;;;;;;5071641;28;19965;-58
2022/07/27 01:15:44;;;;;;;;;;;18.40;87.30;;;;;;5071971;28;19995;-59
2022/07/27 01:18:28;;;;;;;;;;;18.40;88.30;;;;;;5072439;28;20469;-59
2022/07/27 01:20:54;;;;;;;;;;;18.30;88.80;;;;;;5071989;28;19919;-59
2022/07/27 01:23:19;;;;;;;;;;;18.30;89.20;;;;;;5071806;28;19909;-59
2022/07/27 01:25:45;;;;;;;;;;;18.20;89.20;;;;;;5071742;28;20258;-58
2022/07/27 01:28:10;;;;;;;;;;;18.20;89.30;;;;;;5071095;28;19919;-59
2022/07/27 01:30:36;;;;;;;;;;;18.20;90.00;;;;;;5071867;28;19916;-59
2022/07/27 01:33:02;;;;;;;;;;;18.20;89.50;;;;;;5071722;28;19909;-59
2022/07/27 01:35:28;;;;;;;;;;;18.20;89.00;;;;;;5071725;28;20365;-59
2022/07/27 01:37:54;;;;;;;;;;;18.20;90.00;;;;;;5071432;28;19908;-59
2022/07/27 01:40:20;;;;;;;;;;;18.20;89.50;;;;;;5070928;28;20019;-58
2022/07/27 01:42:45;;;;;;;;;;;18.20;90.10;;;;;;5071945;28;19939;-59
2022/07/27 01:45:11;;;;;;;;;;;18.20;90.30;;;;;;5071039;28;20293;-58
2022/07/27 01:47:36;;;;;;;;;;;18.20;89.90;;;;;;5053255;28;20376;-57
2022/07/27 01:50:02;;;;;;;;;;;18.20;90.00;;;;;;5071247;28;19924;-59
2022/07/27 01:52:27;;;;;;;;;;;18.10;90.30;;;;;;5066093;28;19955;-59
2022/07/27 01:54:53;;;;;;;;;;;18.10;90.40;;;;;;5069685;28;20664;-58
2022/07/27 01:57:18;;;;;;;;;;;18.10;90.30;;;;;;5071209;28;19942;-59
2022/07/27 01:59:44;;;;;;;;;;;18.10;90.30;;;;;;5071534;28;19913;-59
2022/07/27 02:02:10;;;;;;;;;;;18.00;90.20;;;;;;5071146;28;20347;-59
2022/07/27 02:04:35;;;;;;;;;;;18.00;90.50;;;;;;5070996;28;19908;-59
2022/07/27 02:07:01;;;;;;;;;;;18.00;90.70;;;;;;5070957;28;20419;-59
2022/07/27 02:09:26;;;;;;;;;;;18.00;90.80;;;;;;5070570;28;19909;-59
2022/07/27 02:14:36;;;;;;;;;;;17.90;90.50;;;;;;5070757;28;19954;-59
2022/07/27 02:17:01;;;;;;;;;;;17.90;90.50;;;;;;5035796;28;19909;-59
2022/07/27 02:19:27;;;;;;;;;;;17.90;90.40;;;;;;5068554;28;19967;-59
2022/07/27 02:21:52;;;;;;;;;;;17.90;90.20;;;;;;5070382;28;20004;-59
2022/07/27 02:24:18;;;;;;;;;;;17.90;90.50;;;;;;5070399;28;19995;-59
2022/07/27 02:26:44;;;;;;;;;;;17.90;90.30;;;;;;5070748;28;19908;-59
2022/07/27 02:29:09;;;;;;;;;;;17.90;90.30;;;;;;5071455;28;19913;-60
2022/07/27 02:31:35;;;;;;;;;;;17.80;90.70;;;;;;5070775;28;19908;-59
2022/07/27 02:34:00;;;;;;;;;;;17.80;90.50;;;;;;5070179;28;20003;-58
2022/07/27 02:36:28;;;;;;;;;;;17.80;90.90;;;;;;5071213;28;19908;-58
2022/07/27 02:38:53;;;;;;;;;;;17.80;90.90;;;;;;5070750;28;19909;-59
2022/07/27 02:41:19;;;;;;;;;;;17.80;91.00;;;;;;5070475;28;19920;-58
2022/07/27 02:43:45;;;;;;;;;;;17.80;91.30;;;;;;5070971;28;20312;-58
2022/07/27 02:46:10;;;;;;;;;;;17.80;91.10;;;;;;5070949;28;19947;-58
2022/07/27 02:48:36;;;;;;;;;;;17.80;91.40;;;;;;5064164;28;19908;-59
2022/07/27 02:51:02;;;;;;;;;;;17.80;91.30;;;;;;5070646;28;19920;-58
2022/07/27 02:53:28;;;;;;;;;;;17.80;91.50;;;;;;5069960;28;19909;-58
2022/07/27 02:55:53;;;;;;;;;;;17.70;91.80;;;;;;5070673;28;20353;-59
2022/07/27 02:58:20;;;;;;;;;;;17.70;91.90;;;;;;5070553;28;19908;-59
2022/07/27 03:00:45;;;;;;;;;;;17.70;91.60;;;;;;5070148;28;19915;-56
2022/07/27 03:03:11;;;;;;;;;;;17.60;92.10;;;;;;5070622;28;19908;-59
2022/07/27 03:05:37;;;;;;;;;;;17.60;91.70;;;;;;5070251;28;19913;-59
2022/07/27 03:08:02;;;;;;;;;;;17.60;92.00;;;;;;5070530;28;19947;-59
2022/07/27 03:10:28;;;;;;;;;;;17.60;91.90;;;;;;5047387;28;19908;-59
2022/07/27 03:12:54;;;;;;;;;;;17.60;91.90;;;;;;5062902;28;19908;-59
2022/07/27 03:15:19;;;;;;;;;;;17.50;92.00;;;;;;5070643;28;19908;-59
2022/07/27 03:17:45;;;;;;;;;;;17.50;92.00;;;;;;5064501;28;19953;-59
2022/07/27 03:20:10;;;;;;;;;;;17.50;92.20;;;;;;5074176;28;19913;-59
2022/07/27 03:22:36;;;;;;;;;;;17.40;92.30;;;;;;5073965;28;19923;-59
2022/07/27 03:25:02;;;;;;;;;;;17.40;92.20;;;;;;5074238;28;19912;-59
2022/07/27 03:27:28;;;;;;;;;;;17.30;92.30;;;;;;5074732;28;19939;-59
2022/07/27 03:29:54;;;;;;;;;;;17.30;92.40;;;;;;5071739;28;19908;-59
2022/07/27 03:32:19;;;;;;;;;;;17.30;92.40;;;;;;5067127;28;19943;-58
2022/07/27 03:34:45;;;;;;;;;;;17.30;92.50;;;;;;5074410;28;19915;-57
2022/07/27 03:37:11;;;;;;;;;;;17.30;92.30;;;;;;5073639;28;19956;-58
2022/07/27 03:39:36;;;;;;;;;;;17.20;92.40;;;;;;5073824;28;19909;-59
2022/07/27 03:42:02;;;;;;;;;;;17.20;92.50;;;;;;5073810;28;19916;-59
2022/07/27 03:44:28;;;;;;;;;;;17.20;92.70;;;;;;5073898;28;19940;-59
2022/07/27 03:46:53;;;;;;;;;;;17.10;92.60;;;;;;5073641;28;19952;-59
2022/07/27 03:49:19;;;;;;;;;;;17.10;92.90;;;;;;5055468;28;19913;-59
2022/07/27 03:51:44;;;;;;;;;;;17.00;92.90;;;;;;5073093;28;20412;-59
2022/07/27 03:54:10;;;;;;;;;;;17.00;92.90;;;;;;5073505;28;19913;-59
2022/07/27 03:56:35;;;;;;;;;;;17.00;92.80;;;;;;5073495;28;19908;-59
2022/07/27 03:59:01;;;;;;;;;;;17.00;92.90;;;;;;5073485;28;19908;-59
2022/07/27 04:01:26;;;;;;;;;;;17.00;93.00;;;;;;5073400;28;19923;-59
2022/07/27 04:03:52;;;;;;;;;;;16.90;92.90;;;;;;5073393;28;20316;-59
2022/07/27 04:06:17;;;;;;;;;;;16.90;92.80;;;;;;5073060;28;19955;-58
2022/07/27 04:08:43;;;;;;;;;;;16.90;93.20;;;;;;5073109;28;19917;-59
2022/07/27 04:11:08;;;;;;;;;;;16.90;93.00;;;;;;5066734;28;19915;-59
2022/07/27 04:13:34;;;;;;;;;;;16.90;93.00;;;;;;5072926;28;19912;-58
2022/07/27 04:15:59;;;;;;;;;;;16.80;93.00;;;;;;5073644;28;19944;-59
2022/07/27 04:18:25;;;;;;;;;;;16.80;92.90;;;;;;5073076;28;19919;-59
2022/07/27 04:20:50;;;;;;;;;;;16.80;92.80;;;;;;5072454;28;19920;-59
2022/07/27 04:23:16;;;;;;;;;;;16.80;92.90;;;;;;5072800;28;20437;-58
2022/07/27 04:25:41;;;;;;;;;;;16.80;93.00;;;;;;5072942;28;19916;-59
2022/07/27 04:28:07;;;;;;;;;;;16.80;92.90;;;;;;5073523;28;20285;-58
2022/07/27 04:30:32;;;;;;;;;;;16.70;93.00;;;;;;5054315;28;20377;-59
2022/07/27 04:32:58;;;;;;;;;;;16.70;93.10;;;;;;5072681;28;19947;-58
2022/07/27 04:35:23;;;;;;;;;;;16.70;93.10;;;;;;5072783;28;20824;-58
2022/07/27 04:37:49;;;;;;;;;;;16.70;93.00;;;;;;5072834;28;19913;-58
2022/07/27 04:40:14;;;;;;;;;;;16.70;93.10;;;;;;5068973;28;19909;-58
2022/07/27 04:42:40;;;;;;;;;;;16.70;93.30;;;;;;5072070;28;20398;-58
2022/07/27 04:45:06;;;;;;;;;;;16.60;93.40;;;;;;5073444;28;19985;-58
2022/07/27 04:47:31;;;;;;;;;;;16.60;93.20;;;;;;5072590;28;19955;-58
2022/07/27 04:49:57;;;;;;;;;;;16.60;93.20;;;;;;5064819;28;19995;-59
2022/07/27 04:52:22;;;;;;;;;;;16.60;93.20;;;;;;5072542;28;19908;-58
2022/07/27 04:54:52;;;;;;;;;;;16.60;93.20;;;;;;5072729;28;20307;-58
2022/07/27 04:57:17;;;;;;;;;;;16.60;93.20;;;;;;5072059;28;19908;-58
2022/07/27 04:59:43;;;;;;;;;;;16.60;93.20;;;;;;5072633;28;19915;-59
2022/07/27 05:02:08;;;;;;;;;;;16.60;93.20;;;;;;5071896;28;20412;-59
2022/07/27 05:04:34;;;;;;;;;;;16.50;93.20;;;;;;5072147;28;19912;-58
2022/07/27 05:06:59;;;;;;;;;;;16.60;93.30;;;;;;5072540;28;20436;-59
2022/07/27 05:09:25;;;;;;;;;;;16.50;93.10;;;;;;5071905;28;19920;-59
2022/07/27 05:11:50;;;;;;;;;;;16.60;93.20;;;;;;5072235;28;19932;-58
2022/07/27 05:14:16;;;;;;;;;;;16.60;93.00;;;;;;5071808;28;20384;-59
2022/07/27 05:16:41;;;;;;;;;;;16.60;93.10;;;;;;5072035;28;19915;-59
2022/07/27 05:19:07;;;;;;;;;;;16.70;93.10;;;;;;5071596;28;19999;-58
2022/07/27 05:21:32;;;;;;;;;;;16.70;93.00;;;;;;5071386;28;20448;-59
2022/07/27 05:23:58;;;;;;;;;;;16.70;93.00;;;;;;5071993;28;19915;-59
2022/07/27 05:26:24;;;;;;;;;;;16.70;93.00;;;;;;5064960;28;20411;-58
2022/07/27 05:28:49;;;;;;;;;;;16.70;93.10;;;;;;5072362;28;19920;-59
2022/07/27 05:31:15;;;;;;;;;;;16.70;93.00;;;;;;5071646;28;19915;-58
2022/07/27 05:33:40;;;;;;;;;;;16.70;93.00;;;;;;5071158;28;19993;-59
2022/07/27 05:36:06;;;;;;;;;;;16.70;93.00;;;;;;5071994;28;19915;-59
2022/07/27 05:38:37;;;;;;;;;;;16.70;93.00;;;;;;5071307;28;20312;-59
2022/07/27 05:41:06;;;;;;;;;;;16.70;92.90;;;;;;5070831;28;19916;-58
2022/07/27 05:43:32;;;;;;;;;;;16.80;92.80;;;;;;5071148;28;19912;-58
2022/07/27 05:45:58;;;;;;;;;;;16.80;92.70;;;;;;5071648;28;19962;-58
2022/07/27 05:48:23;;;;;;;;;;;16.90;92.80;;;;;;5071204;28;19912;-57
2022/07/27 05:50:49;;;;;;;;;;;16.90;92.70;;;;;;5071177;28;19936;-58
2022/07/27 05:53:14;;;;;;;;;;;16.90;92.60;;;;;;5071341;28;19915;-58
2022/07/27 05:55:39;;;;;;;;;;;17.00;92.50;;;;;;5070917;28;19962;-59
2022/07/27 05:58:05;;;;;;;;;;;17.00;92.50;;;;;;5071540;28;19915;-58
2022/07/27 06:00:31;;;;;;;;;;;17.00;92.50;;;;;;5071249;28;20003;-59
2022/07/27 06:02:56;;;;;;;;;;;17.00;92.40;;;;;;5070857;28;19974;-59
2022/07/27 06:05:22;;;;;;;;;;;17.00;92.40;;;;;;5064503;28;19912;-58
2022/07/27 06:08:00;;;;;;;;;;;17.10;92.50;;;;;;5071421;28;20381;-58
2022/07/27 06:10:27;;;;;;;;;;;17.10;92.30;;;;;;5070962;28;19912;-59
2022/07/27 06:12:53;;;;;;;;;;;17.10;92.20;;;;;;5071345;28;19909;-58
2022/07/27 06:15:18;;;;;;;;;;;17.10;92.10;;;;;;5070781;28;20454;-59
2022/07/27 06:17:45;;;;;;;;;;;17.10;92.10;;;;;;5070307;28;19931;-58
2022/07/27 06:20:11;;;;;;;;;;;17.10;92.20;;;;;;5071058;28;19912;-58
2022/07/27 06:22:43;;;;;;;;;;;17.20;92.20;;;;;;5070898;28;19921;-58
2022/07/27 06:25:09;;;;;;;;;;;17.20;92.00;;;;;;5071185;28;19909;-58
2022/07/27 06:27:36;;;;;;;;;;;17.20;92.10;;;;;;5070976;28;19913;-56
2022/07/27 06:30:03;;;;;;;;;;;17.20;91.90;;;;;;5070694;28;19908;-58
2022/07/27 06:32:28;;;;;;;;;;;17.20;91.90;;;;;;5070333;28;20011;-57
2022/07/27 06:34:54;;;;;;;;;;;17.30;91.90;;;;;;5070977;28;20046;-58
2022/07/27 06:37:19;;;;;;;;;;;17.30;91.90;;;;;;5070592;28;19919;-58
2022/07/27 06:39:45;;;;;;;;;;;17.40;91.90;;;;;;5071118;28;19908;-57
2022/07/27 06:42:13;;;;;;;;;;;17.40;91.80;;;;;;5070540;28;19930;-57
2022/07/27 06:44:39;;;;;;;;;;;17.40;91.80;;;;;;5065673;28;19920;-59
2022/07/27 06:47:04;;;;;;;;;;;17.40;91.70;;;;;;5069862;28;19913;-59
2022/07/27 06:49:30;;;;;;;;;;;17.50;91.80;;;;;;5074887;28;20381;-59
2022/07/27 06:51:55;;;;;;;;;;;17.50;91.80;;;;;;5078630;28;19978;-58
2022/07/27 06:54:21;;;;;;;;;;;17.60;91.80;;;;;;5078952;28;19909;-60
2022/07/27 06:56:46;;;;;;;;;;;17.60;91.80;;;;;;5084450;28;19962;-59
2022/07/27 06:59:12;;;;;;;;;;;17.70;91.80;;;;;;5082962;28;19908;-60
2022/07/27 07:01:37;;;;;;;;;;;17.80;91.80;;;;;;5081810;28;19916;-60
2022/07/27 07:04:03;;;;;;;;;;;17.80;91.80;;;;;;5083082;28;19908;-60
2022/07/27 07:06:29;;;;;;;;;;;17.90;91.50;;;;;;5078261;28;19986;-60
2022/07/27 07:08:54;;;;;;;;;;;17.80;91.40;;;;;;5083421;28;20446;-60
2022/07/27 07:11:20;;;;;;;;;;;17.90;91.50;;;;;;5083795;28;19923;-60
2022/07/27 07:13:45;;;;;;;;;;;18.00;91.60;;;;;;5080314;28;20277;-60
2022/07/27 07:16:11;;;;;;;;;;;18.10;91.50;;;;;;5074258;28;19919;-60
2022/07/27 07:18:37;;;;;;;;;;;18.10;91.50;;;;;;5074488;28;19913;-61
2022/07/27 07:21:02;;;;;;;;;;;18.20;91.40;;;;;;5074217;28;20000;-60
2022/07/27 07:23:28;;;;;;;;;;;18.20;91.40;;;;;;5067074;28;19912;-62
2022/07/27 07:25:53;;;;;;;;;;;18.20;91.40;;;;;;5064439;28;19940;-61
2022/07/27 07:28:20;;;;;;;;;;;18.30;91.40;;;;;;5070727;28;19912;-61
2022/07/27 07:30:46;;;;;;;;;;;18.30;91.40;;;;;;5070987;28;19919;-61
2022/07/27 07:33:12;;;;;;;;;;;18.40;91.40;;;;;;5072745;28;19913;-61
2022/07/27 07:35:37;;;;;;;;;;;18.40;91.20;;;;;;5071942;28;19998;-61
2022/07/27 07:38:03;;;;;;;;;;;18.40;91.30;;;;;;5071611;28;20373;-60
2022/07/27 07:40:28;;;;;;;;;;;18.50;91.30;;;;;;5071455;28;19916;-60
2022/07/27 07:42:54;;;;;;;;;;;18.50;91.30;;;;;;5046213;28;20029;-59
2022/07/27 07:45:20;;;;;;;;;;;18.50;91.10;;;;;;5073660;28;19950;-61
2022/07/27 07:47:46;;;;;;;;;;;18.60;91.10;;;;;;5071425;28;20038;-60
2022/07/27 07:50:11;;;;;;;;;;;18.60;91.00;;;;;;5071580;28;20418;-60
2022/07/27 07:52:37;;;;;;;;;;;18.60;90.90;;;;;;5071423;28;19919;-60
2022/07/27 07:55:03;;;;;;;;;;;18.70;90.80;;;;;;5071374;28;19922;-60
2022/07/27 07:57:28;;;;;;;;;;;18.70;90.80;;;;;;5070416;28;19923;-60
2022/07/27 07:59:54;;;;;;;;;;;18.70;90.80;;;;;;5072407;28;19920;-61
2022/07/27 08:02:20;;;;;;;;;;;18.80;90.80;;;;;;5066997;28;19924;-59
2022/07/27 08:04:46;;;;;;;;;;;18.80;90.80;;;;;;5070091;28;20404;-61
2022/07/27 08:07:11;;;;;;;;;;;18.90;90.70;;;;;;5076592;28;19916;-62
2022/07/27 08:09:37;;;;;;;;;;;18.90;90.80;;;;;;5073760;28;19951;-61
2022/07/27 08:12:02;;;;;;;;;;;19.00;90.70;;;;;;5070581;28;19913;-60
2022/07/27 08:14:28;;;;;;;;;;;19.00;90.50;;;;;;5080022;28;20330;-61
2022/07/27 08:16:53;;;;;;;;;;;19.00;90.40;;;;;;5077533;28;19913;-60
2022/07/27 08:19:19;;;;;;;;;;;19.10;90.50;;;;;;5058222;28;19924;-61
2022/07/27 08:21:44;;;;;;;;;;;19.10;90.50;;;;;;5077246;28;19924;-60
2022/07/27 08:24:10;;;;;;;;;;;19.20;90.50;;;;;;5071310;28;20285;-61
2022/07/27 08:26:35;;;;;;;;;;;19.20;90.40;;;;;;5072403;28;19966;-59
2022/07/27 08:29:01;;;;;;;;;;;19.20;90.40;;;;;;5068148;28;19960;-60
2022/07/27 08:31:26;;;;;;;;;;;19.30;90.40;;;;;;5071173;28;20361;-60
2022/07/27 08:33:52;;;;;;;;;;;19.40;90.60;;;;;;5076312;28;19912;-60
2022/07/27 08:36:17;;;;;;;;;;;19.50;90.40;;;;;;5075310;28;20577;-60
2022/07/27 08:38:43;;;;;;;;;;;19.50;90.50;;;;;;5072789;28;19913;-61
2022/07/27 08:41:09;;;;;;;;;;;19.60;90.10;;;;;;5070137;28;19921;-62
2022/07/27 08:43:35;;;;;;;;;;;19.60;89.40;;;;;;5070628;28;19999;-60
2022/07/27 08:46:00;;;;;;;;;;;19.60;88.90;;;;;;5070275;28;20011;-60
2022/07/27 08:48:27;;;;;;;;;;;19.60;89.10;;;;;;5072266;28;19988;-60
2022/07/27 08:50:53;;;;;;;;;;;19.60;89.60;;;;;;5070178;28;19967;-59
2022/07/27 08:53:20;;;;;;;;;;;19.60;89.00;;;;;;5070151;28;19959;-59
2022/07/27 08:55:46;;;;;;;;;;;19.70;88.30;;;;;;5068898;28;19919;-61
2022/07/27 08:58:13;;;;;;;;;;;19.70;88.30;;;;;;5069112;28;19992;-60
2022/07/27 09:00:39;;;;;;;;;;;19.80;88.90;;;;;;5072936;28;19919;-61
2022/07/27 09:03:05;;;;;;;;;;;19.90;87.90;;;;;;5072436;28;19924;-60
2022/07/27 09:05:31;;;;;;;;;;;19.90;88.40;;;;;;5071034;28;20019;-62
2022/07/27 09:08:10;;;;;;;;;;;20.00;88.30;;;;;;5071647;28;19912;-61
2022/07/27 09:10:37;;;;;;;;;;;20.00;87.80;;;;;;5068371;28;19913;-61
2022/07/27 09:13:35;;;;;;;;;;;20.10;88.10;;;;;;5068950;28;20304;-62
2022/07/27 09:16:02;;;;;;;;;;;20.10;87.80;;;;;;5007539;28;20641;-61
2022/07/27 09:18:28;;;;;;;;;;;20.30;87.10;;;;;;5009807;28;19919;-61
2022/07/27 09:21:10;;;;;;;;;;;20.30;86.60;;;;;;5015146;28;19918;-60
2022/07/27 09:23:39;;;;;;;;;;;20.30;86.50;;;;;;5009319;28;19910;-61
2022/07/27 09:26:07;;;;;;;;;;;20.40;85.50;;;;;;4992848;28;19960;-60
2022/07/27 09:28:33;;;;;;;;;;;20.40;85.70;;;;;;5010079;28;20400;-61
2022/07/27 09:31:03;;;;;;;;;;;20.40;87.60;;;;;;5009363;28;19910;-62
2022/07/27 09:33:29;;;;;;;;;;;20.50;85.60;;;;;;5009573;28;20337;-61
2022/07/27 09:35:58;;;;;;;;;;;20.60;85.50;;;;;;5009533;28;19910;-61
2022/07/27 09:38:31;;;;;;;;;;;20.60;84.50;;;;;;5090066;27;19912;-60
2022/07/27 09:41:00;;;;;;;;;;;20.60;84.30;;;;;;5087924;28;19916;-60
2022/07/27 09:43:27;;;;;;;;;;;20.60;84.40;;;;;;5088464;28;19908;-59
2022/07/27 09:45:53;;;;;;;;;;;20.60;83.90;;;;;;5088573;28;19931;-60
2022/07/27 09:48:19;;;;;;;;;;;20.60;84.00;;;;;;5088405;28;20505;-60
2022/07/27 09:50:58;;;;;;;;;;;20.60;84.40;;;;;;5088267;28;19913;-60
2022/07/27 09:53:25;;;;;;;;;;;20.70;83.90;;;;;;5088292;28;19955;-60
2022/07/27 09:56:10;;;;;;;;;;;20.70;83.80;;;;;;5088095;28;20408;-58
2022/07/27 09:58:49;;;;;;;;;;;20.70;84.00;;;;;;5088306;28;19916;-60
2022/07/27 10:01:16;;;;;;;;;;;20.80;83.00;;;;;;5088247;28;19908;-60
2022/07/27 10:03:42;;;;;;;;;;;20.80;82.40;;;;;;5088223;28;19912;-60
2022/07/27 10:06:09;;;;;;;;;;;20.70;83.10;;;;;;5088257;28;19908;-60
2022/07/27 10:08:35;;;;;;;;;;;20.90;82.60;;;;;;5087836;28;19919;-60
2022/07/27 10:11:00;;;;;;;;;;;20.90;82.40;;;;;;5088176;28;19913;-60
2022/07/27 10:13:26;;;;;;;;;;;20.90;81.80;;;;;;5087580;28;20344;-60
2022/07/27 10:15:52;;;;;;;;;;;21.00;82.30;;;;;;5120698;28;20003;-60
2022/07/27 10:18:26;;;;;;;;;;;21.00;82.00;;;;;;5088348;28;19939;-61
2022/07/27 10:20:52;;;;;;;;;;;21.00;81.00;;;;;;5087693;28;19912;-59
2022/07/27 10:23:37;;;;;;;;;;;21.00;80.80;;;;;;5084842;28;20000;-60
2022/07/27 10:26:22;;;;;;;;;;;21.00;80.40;;;;;;5087486;28;19909;-60
2022/07/27 10:28:52;;;;;;;;;;;20.90;79.90;;;;;;5081830;28;19908;-60
2022/07/27 10:31:21;;;;;;;;;;;20.90;80.40;;;;;;5087464;28;19956;-60
2022/07/27 10:33:48;;;;;;;;;;;21.00;79.50;;;;;;5087818;28;19987;-60
2022/07/27 10:36:15;;;;;;;;;;;21.00;78.90;;;;;;5081193;28;19909;-60
2022/07/27 10:38:51;;;;;;;;;;;21.20;78.80;;;;;;5080379;28;19979;-60
2022/07/27 10:41:38;;;;;;;;;;;21.20;78.80;;;;;;5087587;28;19931;-59
2022/07/27 10:44:13;;;;;;;;;;;21.20;78.10;;;;;;5087574;28;19915;-60
2022/07/27 10:46:42;;;;;;;;;;;21.30;79.60;;;;;;5087093;28;20373;-61
2022/07/27 10:49:18;;;;;;;;;;;21.40;80.10;;;;;;5077834;28;19908;-61
2022/07/27 10:51:43;;;;;;;;;;;21.50;79.00;;;;;;5073478;28;19913;-61
2022/07/27 10:54:22;;;;;;;;;;;21.50;77.60;;;;;;5074074;28;19920;-61
2022/07/27 10:56:48;;;;;;;;;;;21.50;77.20;;;;;;5067654;28;19920;-60
2022/07/27 10:59:14;;;;;;;;;;;21.50;77.10;;;;;;5067267;28;19959;-60
2022/07/27 11:01:56;;;;;;;;;;;21.50;75.70;;;;;;5073469;28;19967;-60
2022/07/27 11:04:22;;;;;;;;;;;21.50;76.70;;;;;;5073496;28;19908;-61
2022/07/27 11:06:53;;;;;;;;;;;21.50;76.30;;;;;;5073472;28;19916;-60
2022/07/27 11:09:19;;;;;;;;;;;21.60;77.40;;;;;;5073545;28;19908;-61
2022/07/27 11:11:47;;;;;;;;;;;21.70;76.70;;;;;;5073163;28;20282;-60
2022/07/27 11:14:12;;;;;;;;;;;21.70;77.10;;;;;;5073273;28;19912;-59
2022/07/27 11:16:38;;;;;;;;;;;21.80;75.80;;;;;;5073550;28;19924;-61
2022/07/27 11:19:05;;;;;;;;;;;21.90;76.30;;;;;;5073207;28;19909;-61
2022/07/27 11:21:37;;;;;;;;;;;21.90;74.70;;;;;;5072549;28;19909;-59
2022/07/27 11:24:08;;;;;;;;;;;21.90;74.70;;;;;;5073144;28;19951;-61
2022/07/27 11:26:42;;;;;;;;;;;22.00;75.20;;;;;;5073723;28;19909;-60
2022/07/27 11:29:08;;;;;;;;;;;22.00;74.80;;;;;;5073354;28;19916;-60
2022/07/27 11:31:35;;;;;;;;;;;22.10;73.70;;;;;;5073156;28;19932;-60
2022/07/27 11:34:00;;;;;;;;;;;22.10;73.30;;;;;;5073176;28;19908;-59
2022/07/27 11:36:39;;;;;;;;;;;22.20;72.20;;;;;;5072728;28;19928;-59
2022/07/27 11:39:06;;;;;;;;;;;22.20;72.30;;;;;;5072924;28;19962;-60
2022/07/27 11:41:32;;;;;;;;;;;22.20;73.20;;;;;;5072878;28;19917;-61
2022/07/27 11:44:02;;;;;;;;;;;22.40;73.90;;;;;;5072741;28;19916;-61
2022/07/27 11:46:29;;;;;;;;;;;22.50;74.10;;;;;;5071273;28;19913;-60
2022/07/27 11:48:59;;;;;;;;;;;22.70;74.10;;;;;;5072989;28;19913;-60
2022/07/27 11:51:25;;;;;;;;;;;22.80;73.20;;;;;;5071923;28;20289;-60
2022/07/27 11:53:54;;;;;;;;;;;22.90;71.30;;;;;;5072687;28;19919;-59
2022/07/27 11:56:20;;;;;;;;;;;22.90;69.80;;;;;;5072476;28;19918;-61
2022/07/27 11:58:58;;;;;;;;;;;22.90;68.80;;;;;;5072864;28;19913;-60
2022/07/27 12:01:27;;;;;;;;;;;22.90;69.10;;;;;;5071271;28;19912;-61
2022/07/27 12:04:07;;;;;;;;;;;22.90;69.80;;;;;;5072255;28;19912;-59
2022/07/27 12:06:33;;;;;;;;;;;23.00;70.10;;;;;;5072241;28;19947;-61
2022/07/27 12:09:00;;;;;;;;;;;23.10;71.10;;;;;;5071205;28;19909;-61
2022/07/27 12:11:29;;;;;;;;;;;23.20;71.40;;;;;;5072244;28;19916;-61
2022/07/27 12:13:58;;;;;;;;;;;23.30;69.70;;;;;;5072226;28;19915;-60
2022/07/27 12:16:23;;;;;;;;;;;23.40;68.60;;;;;;5072545;28;19908;-59
2022/07/27 12:18:49;;;;;;;;;;;23.30;65.90;;;;;;5071696;28;20339;-61
2022/07/27 12:21:18;;;;;;;;;;;23.20;66.50;;;;;;5072047;28;19908;-59
2022/07/27 12:23:50;;;;;;;;;;;23.20;66.50;;;;;;5071668;28;19915;-61
2022/07/27 12:26:19;;;;;;;;;;;23.30;67.60;;;;;;5071857;28;19912;-61
2022/07/27 12:28:45;;;;;;;;;;;23.40;68.40;;;;;;5072024;28;19932;-60
2022/07/27 12:31:17;;;;;;;;;;;23.50;68.70;;;;;;5071850;28;20302;-61
2022/07/27 12:33:42;;;;;;;;;;;23.60;66.40;;;;;;5071062;28;20003;-60
2022/07/27 12:36:08;;;;;;;;;;;23.70;67.50;;;;;;5071923;28;20436;-61
2022/07/27 12:38:42;;;;;;;;;;;23.80;67.10;;;;;;5071922;28;19917;-59
2022/07/27 12:41:08;;;;;;;;;;;23.80;66.90;;;;;;5071318;28;19944;-62
2022/07/27 12:43:33;;;;;;;;;;;23.80;65.80;;;;;;5071705;28;20417;-61
2022/07/27 12:46:08;;;;;;;;;;;23.80;63.90;;;;;;5071564;28;19946;-60
2022/07/27 12:48:37;;;;;;;;;;;23.70;63.00;;;;;;5071298;28;20308;-61
2022/07/27 12:51:04;;;;;;;;;;;23.60;63.60;;;;;;5065306;28;19912;-61
2022/07/27 12:53:31;;;;;;;;;;;23.60;63.10;;;;;;5064845;28;19908;-61
2022/07/27 12:55:59;;;;;;;;;;;23.60;63.90;;;;;;5071549;28;19961;-61
2022/07/27 12:58:24;;;;;;;;;;;23.70;63.80;;;;;;5071244;28;20445;-61
2022/07/27 13:00:50;;;;;;;;;;;23.80;63.90;;;;;;5071759;28;19991;-62
2022/07/27 13:03:15;;;;;;;;;;;23.70;62.60;;;;;;5070776;28;19913;-61
2022/07/27 13:05:41;;;;;;;;;;;23.70;63.90;;;;;;5071095;28;19913;-60
2022/07/27 13:08:08;;;;;;;;;;;23.80;63.90;;;;;;5071063;28;19997;-60
2022/07/27 13:10:35;;;;;;;;;;;23.80;62.40;;;;;;5071083;28;19999;-60
2022/07/27 13:13:00;;;;;;;;;;;23.80;63.80;;;;;;5070953;28;19999;-61
2022/07/27 13:15:26;;;;;;;;;;;23.80;63.00;;;;;;5071252;28;20003;-61
2022/07/27 13:17:51;;;;;;;;;;;23.80;62.70;;;;;;5070759;28;20006;-61
2022/07/27 13:20:17;;;;;;;;;;;23.80;63.70;;;;;;5071087;28;19995;-60
2022/07/27 13:22:43;;;;;;;;;;;23.80;63.00;;;;;;5071180;28;19916;-61
2022/07/27 13:25:09;;;;;;;;;;;23.90;63.80;;;;;;5071166;28;19961;-60
2022/07/27 13:27:35;;;;;;;;;;;23.90;61.60;;;;;;5070913;28;19919;-62
2022/07/27 13:30:02;;;;;;;;;;;23.80;61.80;;;;;;5070882;28;19936;-60
2022/07/27 13:32:28;;;;;;;;;;;23.90;62.80;;;;;;5070645;28;19991;-61
2022/07/27 13:34:53;;;;;;;;;;;24.00;62.60;;;;;;5070885;28;20007;-60
2022/07/27 13:37:19;;;;;;;;;;;24.00;61.80;;;;;;5070892;28;19924;-62
2022/07/27 13:39:44;;;;;;;;;;;24.00;62.20;;;;;;5066323;28;19916;-61
2022/07/27 13:42:10;;;;;;;;;;;24.10;61.10;;;;;;5073193;28;19914;-61
2022/07/27 13:44:35;;;;;;;;;;;24.10;61.40;;;;;;5068408;28;20372;-61
2022/07/27 13:47:01;;;;;;;;;;;24.10;62.10;;;;;;5068844;28;19952;-62
2022/07/27 13:49:26;;;;;;;;;;;24.20;60.20;;;;;;5069314;28;19919;-61
2022/07/27 13:51:52;;;;;;;;;;;24.10;60.30;;;;;;5068760;28;19923;-61
2022/07/27 13:54:17;;;;;;;;;;;24.10;60.80;;;;;;5068045;28;19912;-61
2022/07/27 13:56:43;;;;;;;;;;;24.10;61.70;;;;;;5066249;28;19932;-59
2022/07/27 13:59:10;;;;;;;;;;;24.10;60.20;;;;;;5069014;28;19919;-59
2022/07/27 14:01:36;;;;;;;;;;;24.10;60.80;;;;;;5067567;28;19917;-60
2022/07/27 14:04:06;;;;;;;;;;;24.20;60.20;;;;;;5068489;28;20451;-61
2022/07/27 14:06:36;;;;;;;;;;;24.10;60.00;;;;;;5069158;28;19917;-62
2022/07/27 14:09:03;;;;;;;;;;;24.10;59.50;;;;;;5068639;28;20393;-61
2022/07/27 14:11:29;;;;;;;;;;;23.90;60.20;;;;;;5070353;28;20473;-61
2022/07/27 14:13:54;;;;;;;;;;;23.90;59.90;;;;;;5067766;28;20465;-61
2022/07/27 14:16:20;;;;;;;;;;;23.90;59.30;;;;;;5068365;28;20415;-60